Latest Weather Observations for Rolleston Airport

IDQ60801

Issued at 11:02 pm EST Monday 24 April 2017 (issued every 30 minutes, with the page automatically refreshed every 10 minutes)

About weather observations | Map of weather stations | Latest weather observations for QLD | Other Formats
Station Details ID: 035129 Name: ROLLESTON AIRPORT Lat: -24.46 Lon: 148.63 Height: 219.45 m
Data from the previous 72 hours. | See also: Recent months at Rolleston Airport
Date/Time
EST
Temp
°C
App
Temp
°C
Dew
Point
°C
Rel
Hum
%
Delta-T
°C
Wind Press
QNH
hPa
Press
MSL
hPa
Rain since
9am
mm
Dir  Spd
km/h
Gust
km/h
Spd
kts
Gust
kts
24/11:00pm 16.9 16.8 12.0 73 2.7 S 4 6 2 3 1018.7 1017.8 0.0
24/10:30pm 17.5 18.1 12.0 70 3.0 CALM 0 0 0 0 1018.9 1018.0 0.0
24/10:00pm 18.1 18.8 12.1 68 3.3 CALM 0 0 0 0 1018.8 1017.9 0.0
24/09:30pm 19.3 19.3 12.3 64 3.9 N 4 4 2 2 1019.0 1018.1 0.0
24/09:00pm 19.4 19.4 11.2 59 4.5 NNE 2 6 1 3 1019.1 1018.2 0.0
24/08:30pm 20.9 20.3 12.3 58 4.9 ENE 7 7 4 4 1018.8 1017.9 0.0
24/08:00pm 21.2 20.6 11.8 55 5.3 NE 6 7 3 4 1018.5 1017.5 0.0
24/07:30pm 22.1 20.9 11.5 51 6.0 ENE 9 9 5 5 1018.2 1017.2 0.0
24/07:00pm 22.8 22.0 11.8 50 6.2 ENE 7 9 4 5 1018.0 1017.0 0.0
24/06:30pm 23.5 22.6 11.5 47 6.8 ENE 7 9 4 5 1017.6 1016.6 0.0
24/06:00pm 24.2 23.3 11.2 44 7.3 ENE 7 9 4 5 1017.5 1016.5 0.0
24/05:30pm 26.4 24.2 10.9 38 8.8 E 13 19 7 10 1017.3 1016.3 0.0
24/05:00pm 27.6 27.0 11.6 37 9.3 E 6 9 3 5 1017.0 1016.0 0.0
24/04:30pm 27.9 26.7 11.5 36 9.5 ESE 9 15 5 8 1016.9 1015.9 0.0
24/04:00pm 28.1 28.5 12.5 38 9.2 NNE 2 6 1 3 1016.7 1015.7 0.0
24/03:30pm 27.3 26.8 12.5 40 8.7 E 7 13 4 7 1016.7 1015.7 0.0
24/03:00pm 27.2 25.5 12.4 40 8.7 ESE 13 20 7 11 1017.0 1016.0 0.0
24/02:30pm 26.9 27.1 12.9 42 8.3 SE 4 9 2 5 1017.1 1016.1 0.0
24/02:00pm 27.3 25.5 12.1 39 8.9 E 13 19 7 10 1017.3 1016.3 0.0
24/01:30pm 27.5 27.6 13.8 43 8.2 E 6 11 3 6 1017.7 1016.7 0.0
24/01:00pm 27.7 27.7 13.6 42 8.4 ENE 6 13 3 7 1018.1 1017.1 0.0
24/12:30pm 26.9 26.7 13.6 44 7.9 ESE 7 20 4 11 1018.6 1017.6 0.0
24/12:00pm 25.0 25.0 14.2 51 6.4 SE 7 15 4 8 1019.1 1018.2 0.0
24/11:30am 25.0 25.6 14.2 51 6.5 ENE 4 9 2 5 1020.0 1019.1 0.0
24/11:00am 26.0 26.9 15.1 51 6.6 S 4 7 2 4 1020.5 1019.6 0.0
24/10:30am 25.0 25.6 15.3 55 5.9 ESE 6 13 3 7 1020.8 1019.9 0.0
24/10:00am 24.8 25.5 15.7 57 5.6 NE 6 11 3 6 1021.1 1020.2 0.0
24/09:30am 23.4 24.0 15.2 60 4.9 E 6 13 3 7 1021.1 1020.2 0.0
24/09:00am 22.3 23.0 15.6 66 4.0 SSE 6 9 3 5 1021.1 1020.2 0.0
24/08:30am 21.1 21.2 15.6 71 3.3 SE 9 11 5 6 1021.1 1020.2 0.0
24/08:00am 19.1 19.4 14.4 74 2.7 SSE 6 7 3 4 1020.8 1019.9 0.0
24/07:30am 17.0 16.8 13.5 80 2.0 SSE 7 9 4 5 1020.4 1019.5 0.0
24/07:00am 15.1 14.6 12.8 86 1.3 SSE 7 9 4 5 1020.2 1019.3 0.0
24/06:30am 14.5 13.6 12.7 89 1.0 SE 9 11 5 6 1020.1 1019.2 0.0
24/06:00am 14.5 13.7 11.7 83 1.5 SSE 7 9 4 5 1019.8 1018.9 0.0
24/05:30am 15.3 14.8 12.8 85 1.4 SE 7 9 4 5 1019.6 1018.7 0.0
24/05:00am 15.0 13.9 12.0 82 1.6 SE 9 9 5 5 1019.3 1018.4 0.0
24/04:30am 15.2 14.7 12.0 81 1.8 SE 6 7 3 4 1019.2 1018.3 0.0
24/04:00am 14.8 14.0 11.0 78 2.0 SSE 6 6 3 3 1019.3 1018.4 0.0
24/03:30am 15.1 14.8 11.5 79 2.0 S 4 6 2 3 1019.3 1018.4 0.0
24/03:00am 14.7 15.1 11.1 79 1.9 CALM 0 0 0 0 1019.3 1018.4 0.0
24/02:30am 15.8 16.2 11.4 75 2.4 CALM 0 0 0 0 1019.4 1018.5 0.0
24/02:00am 15.9 16.3 11.3 74 2.5 CALM 0 0 0 0 1019.5 1018.6 0.0
24/01:30am 16.1 15.6 10.6 70 3.0 WSW 4 4 2 2 1019.8 1018.9 0.0
24/01:00am 16.7 16.7 11.0 69 3.1 NNE 2 4 1 2 1019.8 1018.9 0.0
24/12:30am 17.1 16.6 10.7 66 3.5 ESE 4 7 2 4 1020.0 1019.1 0.0
24/12:00am 17.6 17.2 11.2 66 3.5 SE 4 6 2 3 1020.0 1019.1 0.0
 
Date/Time
EST
Temp
°C
App
Temp
°C
Dew
Point
°C
Rel
Hum
%
Delta-T
°C
Wind Press
QNH
hPa
Press
MSL
hPa
Rain since
9am
mm
Dir  Spd
km/h
Gust
km/h
Spd
kts
Gust
kts
23/11:30pm 17.4 17.1 11.4 68 3.3 S 4 4 2 2 1020.2 1019.3 0.0
23/11:00pm 17.2 16.6 10.3 64 3.7 S 4 6 2 3 1020.4 1019.5 0.0
23/10:30pm 17.7 17.2 10.6 63 3.8 S 4 6 2 3 1020.2 1019.3 0.0
23/10:00pm 18.8 18.2 10.4 58 4.5 SSE 4 6 2 3 1020.3 1019.4 0.0
23/09:30pm 20.8 19.7 10.6 52 5.6 ENE 7 9 4 5 1020.3 1019.4 0.0
23/09:00pm 21.4 19.8 10.3 49 6.1 NE 9 13 5 7 1020.5 1019.6 0.0
23/08:30pm 22.5 20.9 10.3 46 6.7 E 9 11 5 6 1020.2 1019.3 0.0
23/08:00pm 22.4 21.0 10.9 48 6.4 ENE 9 9 5 5 1020.0 1019.1 0.0
23/07:30pm 22.5 21.4 10.6 47 6.6 E 7 9 4 5 1019.5 1018.6 0.0
23/07:00pm 23.1 22.1 10.9 46 6.8 E 7 9 4 5 1019.1 1018.2 0.0
23/06:30pm 23.9 23.0 11.3 45 7.1 ENE 7 9 4 5 1018.8 1017.9 0.0
23/06:00pm 24.9 23.9 11.1 42 7.8 ENE 7 9 4 5 1018.5 1017.5 0.0
23/05:30pm 26.3 24.9 10.9 38 8.8 E 9 13 5 7 1018.4 1017.4 0.0
23/05:00pm 26.9 25.1 11.0 37 9.1 E 11 17 6 9 1018.2 1017.2 0.0
23/04:30pm 28.0 26.3 11.1 35 9.7 ESE 11 20 6 11 1018.0 1017.0 0.0
23/04:00pm 27.7 26.4 11.3 36 9.4 ESE 9 15 5 8 1017.9 1016.9 0.0
23/03:30pm 28.0 27.0 11.1 35 9.7 ESE 7 17 4 9 1017.9 1016.9 0.0
23/03:00pm 27.4 25.0 11.4 37 9.2 SE 15 22 8 12 1018.1 1017.1 0.0
23/02:30pm 28.5 28.2 12.8 38 9.3 ESE 6 15 3 8 1018.3 1017.3 0.0
23/02:00pm 27.2 26.2 12.4 40 8.7 SE 9 19 5 10 1018.5 1017.5 0.0
23/01:30pm 27.5 26.4 13.1 41 8.5 SE 11 20 6 11 1018.7 1017.8 0.0
23/01:00pm 27.4 26.9 12.6 40 8.7 SE 7 19 4 10 1019.0 1018.1 0.0
23/12:30pm 26.8 26.1 13.2 43 8.1 ESE 9 20 5 11 1019.5 1018.6 0.0
23/12:00pm 26.0 25.6 12.5 43 7.9 SE 6 13 3 7 1020.0 1019.1 0.0
23/11:30am 26.0 25.7 13.2 45 7.6 E 7 15 4 8 1020.6 1019.7 0.0
23/11:00am 25.2 24.8 13.1 47 7.1 SE 7 15 4 8 1021.2 1020.3 0.0
23/10:30am 24.8 24.4 13.0 47 6.9 SE 7 13 4 7 1021.8 1020.8 0.0
23/10:00am 23.7 23.3 13.0 51 6.2 SE 7 17 4 9 1022.2 1021.2 0.0
23/09:30am 22.8 22.4 13.0 54 5.7 SSE 7 15 4 8 1022.3 1021.3 0.0
23/09:00am 22.2 22.0 13.5 57 5.1 SSE 7 13 4 7 1022.3 1021.3 0.0
23/08:30am 21.0 19.9 13.2 61 4.5 SE 11 17 6 9 1022.2 1021.2 0.0
23/08:00am 19.9 19.0 13.8 68 3.5 SSE 11 15 6 8 1022.0 1021.0 0.0
23/07:30am 18.2 18.5 14.5 79 2.2 SSE 6 9 3 5 1021.7 1020.7 0.0
23/07:00am 16.7 17.0 14.5 87 1.3 SSE 6 6 3 3 1021.6 1020.6 0.0
23/06:30am 16.0 17.0 14.4 90 0.9 S 2 4 1 2 1021.5 1020.5 0.0
23/06:00am 15.9 15.9 14.3 90 0.9 SE 7 7 4 4 1021.1 1020.2 0.0
23/05:30am 16.1 16.3 14.1 88 1.1 SE 6 6 3 3 1020.9 1020.0 0.0
23/05:00am 16.7 17.0 14.5 87 1.3 SE 6 9 3 5 1020.6 1019.7 0.0
23/04:30am 17.2 18.1 15.0 87 1.3 SSE 4 7 2 4 1020.6 1019.7 0.0
23/04:00am 17.5 17.9 15.3 87 1.3 SE 7 9 4 5 1020.7 1019.8 0.0
23/03:30am 17.8 18.2 15.4 86 1.4 SE 7 7 4 4 1020.5 1019.6 0.0
23/03:00am 17.8 18.2 15.2 85 1.5 SE 7 7 4 4 1020.6 1019.7 0.0
23/02:30am 17.9 18.6 15.5 86 1.4 SSE 6 9 3 5 1020.6 1019.7 0.0
23/02:00am 17.8 18.4 15.2 85 1.5 SSE 6 6 3 3 1020.7 1019.8 0.0
23/01:30am 18.3 18.7 15.2 82 1.8 SE 7 9 4 5 1020.8 1019.9 0.0
23/01:00am 19.3 19.8 15.6 79 2.2 SE 7 9 4 5 1020.8 1019.9 0.0
23/12:30am 19.8 20.0 15.7 77 2.5 SSE 9 11 5 6 1021.0 1020.1 0.0
23/12:00am 20.2 20.3 15.4 74 2.9 SE 9 13 5 7 1021.1 1020.2 0.0
 
Date/Time
EST
Temp
°C
App
Temp
°C
Dew
Point
°C
Rel
Hum
%
Delta-T
°C
Wind Press
QNH
hPa
Press
MSL
hPa
Rain since
9am
mm
Dir  Spd
km/h
Gust
km/h
Spd
kts
Gust
kts
22/11:30pm 21.4 21.9 15.0 67 3.8 SSE 6 6 3 3 1021.1 1020.2 0.0
22/11:00pm 22.0 22.3 15.1 65 4.1 E 7 13 4 7 1021.1 1020.2 0.0
22/10:30pm 21.5 21.4 14.9 66 3.9 ENE 9 11 5 6 1020.9 1020.0 0.0
22/10:00pm 20.4 20.0 13.1 63 4.2 E 7 9 4 5 1021.0 1020.1 0.0
22/09:30pm 20.9 20.4 12.8 60 4.6 E 7 11 4 6 1021.1 1020.2 0.0
22/09:00pm 21.2 20.3 11.2 53 5.6 E 7 9 4 5 1021.0 1020.1 0.0
22/08:30pm 22.1 20.3 10.9 49 6.2 ENE 11 15 6 8 1020.7 1019.8 0.0
22/08:00pm 20.6 20.0 11.8 57 4.9 ENE 6 9 3 5 1020.3 1019.4 0.0
22/07:30pm 21.3 20.7 11.6 54 5.5 E 6 7 3 4 1019.9 1019.0 0.0
22/07:00pm 22.6 21.9 11.4 49 6.3 E 6 6 3 3 1019.8 1018.9 0.0
22/06:30pm 23.3 22.4 10.7 45 7.0 E 6 6 3 3 1019.4 1018.5 0.0
22/06:00pm 24.1 23.2 10.7 43 7.5 E 6 6 3 3 1019.3 1018.4 0.0
22/05:30pm 25.6 24.0 10.2 38 8.6 E 9 11 5 6 1019.1 1018.2 0.0
22/05:00pm 27.0 25.3 9.8 34 9.6 ENE 9 15 5 8 1018.9 1018.0 0.0
22/04:30pm 27.4 25.0 10.2 34 9.7 ENE 13 20 7 11 1018.8 1017.9 0.0
22/04:00pm 27.8 26.3 10.5 34 9.8 ESE 9 17 5 9 1018.6 1017.6 0.0
22/03:30pm 27.9 25.0 9.7 32 10.2 ENE 15 24 8 13 1018.5 1017.5 0.0
22/03:00pm 27.8 25.8 11.4 36 9.5 E 13 24 7 13 1018.5 1017.5 0.0
22/02:30pm 27.6 25.5 11.2 36 9.4 ENE 13 24 7 13 1018.6 1017.6 0.0
22/02:00pm 27.1 24.1 10.8 36 9.3 E 17 24 9 13 1018.9 1018.0 0.0
22/01:30pm 27.1 25.6 12.0 39 8.8 ESE 11 20 6 11 1019.2 1018.3 0.0
22/01:00pm 27.0 25.3 11.1 37 9.1 ESE 11 24 6 13 1019.6 1018.7 0.0
22/12:30pm 26.7 24.7 11.6 39 8.7 ESE 13 19 7 10 1020.1 1019.2 0.0
22/12:00pm 26.0 24.4 11.7 41 8.2 SE 11 22 6 12 1020.6 1019.7 0.0
22/11:30am 25.3 23.0 10.4 39 8.4 ESE 13 22 7 12 1021.1 1020.2 0.0
22/11:00am 24.9 22.8 11.1 42 7.8 E 13 20 7 11 1021.8 1020.8 0.0
22/10:30am 24.3 22.0 11.6 45 7.2 ESE 15 20 8 11 1022.3 1021.3 0.0
22/10:00am 23.9 21.8 12.5 49 6.6 ESE 15 24 8 13 1022.6 1021.6 0.0
22/09:30am 23.0 21.1 12.9 53 5.9 E 15 24 8 13 1022.7 1021.8 0.0
22/09:00am 21.8 20.0 13.2 58 5.0 SE 15 24 8 13 1022.7 1021.8 0.0
22/08:30am 20.2 18.7 13.2 64 4.0 SE 13 17 7 9 1022.7 1021.8 0.0
22/08:00am 18.4 17.5 12.6 69 3.3 SSE 9 15 5 8 1022.5 1021.5 0.0
22/07:30am 16.4 16.1 12.6 78 2.1 SSE 6 9 3 5 1022.5 1021.5 0.0
22/07:00am 14.9 14.6 12.8 87 1.2 SE 6 6 3 3 1022.2 1021.2 0.0
22/06:30am 13.6 13.5 12.0 90 0.9 SSE 4 6 2 3 1022.0 1021.0 0.0
22/06:00am 13.7 13.7 12.3 91 0.8 S 4 4 2 2 1021.7 1020.7 0.0
22/05:30am 13.8 13.3 12.2 90 0.9 SSE 6 6 3 3 1021.5 1020.5 0.0
22/05:00am 14.4 14.2 13.0 91 0.8 SE 6 7 3 4 1021.2 1020.3 0.0
22/04:30am 14.3 13.9 12.3 88 1.1 SSE 6 7 3 4 1021.2 1020.3 0.0
22/04:00am 15.1 14.7 12.4 84 1.5 SSE 6 6 3 3 1021.1 1020.2 0.0
22/03:30am 16.3 16.5 13.2 82 1.7 SSW 4 6 2 3 1021.1 1020.2 0.0
22/03:00am 16.1 16.3 13.0 82 1.7 S 4 6 2 3 1021.0 1020.1 0.0
22/02:30am 16.8 16.5 13.3 80 2.0 SE 7 9 4 5 1021.1 1020.2 0.0
22/02:00am 18.3 17.7 13.6 74 2.7 ESE 9 13 5 7 1021.2 1020.3 0.0
22/01:30am 19.4 18.6 14.0 71 3.1 ESE 11 17 6 9 1021.5 1020.5 0.0
22/01:00am 19.8 18.9 13.7 68 3.5 E 11 19 6 10 1021.7 1020.7 0.0
22/12:30am 19.5 19.5 14.3 72 3.0 E 7 11 4 6 1022.0 1021.0 0.0
22/12:00am 18.3 18.0 13.2 72 2.9 ESE 7 9 4 5 1021.9 1020.9 0.0
 
Date/Time
EST
Temp
°C
App
Temp
°C
Dew
Point
°C
Rel
Hum
%
Delta-T
°C
Wind Press
QNH
hPa
Press
MSL
hPa
Rain since
9am
mm
Dir  Spd
km/h
Gust
km/h
Spd
kts
Gust
kts
21/11:30pm 18.4 18.8 12.4 68 3.4 E 2 4 1 2 1022.0 1021.0 0.0

Other Formats:

Comma delimited format used in spreadsheet applications
http://www.bom.gov.au/fwo/IDQ60801/IDQ60801.94396.axf

JavaScript Object Notation format (JSON) in row-major order
http://www.bom.gov.au/fwo/IDQ60801/IDQ60801.94396.json